createdAt,value
2024-01-04T00:00:32.020Z,84.99
2024-01-04T00:02:54.075Z,84.28
2024-01-04T00:05:16.026Z,84.45
2024-01-04T00:07:38.946Z,82.89
2024-01-04T00:10:00.977Z,82.49
2024-01-04T00:12:22.998Z,82.43
2024-01-04T00:14:45.449Z,82.63
2024-01-04T00:17:07.786Z,81.33
2024-01-04T00:19:29.811Z,81.40
2024-01-04T00:21:51.750Z,80.59
2024-01-04T00:24:13.829Z,80.92
2024-01-04T00:26:35.877Z,81.26
2024-01-04T00:28:58.589Z,80.34
2024-01-04T00:31:20.466Z,80.29
2024-01-04T00:33:42.626Z,80.81
2024-01-04T00:36:05.141Z,80.66
2024-01-04T00:38:27.054Z,81.41
2024-01-04T00:40:49.020Z,81.18
2024-01-04T00:43:11.104Z,81.42
2024-01-04T00:45:33.561Z,81.75
2024-01-04T00:47:55.610Z,81.43
2024-01-04T00:50:17.641Z,80.83
2024-01-04T00:52:39.591Z,81.92
2024-01-04T00:55:01.512Z,81.95
2024-01-04T00:57:23.374Z,82.17
2024-01-04T00:59:45.391Z,82.70
2024-01-04T01:02:07.395Z,82.33
2024-01-04T01:04:29.363Z,82.61
2024-01-04T01:06:51.376Z,83.20
2024-01-04T01:09:13.471Z,82.30
2024-01-04T01:11:35.442Z,82.90
2024-01-04T01:13:57.445Z,83.32
2024-01-04T01:16:19.352Z,83.11
2024-01-04T01:18:41.765Z,83.71
2024-01-04T01:21:03.915Z,83.99
2024-01-04T01:23:25.796Z,83.92
2024-01-04T01:25:47.730Z,85.01
2024-01-04T01:28:09.619Z,84.14
2024-01-04T01:30:31.652Z,84.64
2024-01-04T01:32:53.740Z,84.47
2024-01-04T01:35:15.824Z,84.33
2024-01-04T01:37:38.240Z,84.72
2024-01-04T01:40:00.202Z,84.55
2024-01-04T01:42:22.458Z,84.30
2024-01-04T01:44:44.453Z,83.87
2024-01-04T01:47:06.737Z,83.92
2024-01-04T01:49:28.882Z,84.06
2024-01-04T01:51:51.199Z,84.84
2024-01-04T01:54:13.782Z,84.50
2024-01-04T01:56:35.991Z,84.45
2024-01-04T01:59:04.428Z,83.74
2024-01-04T02:01:26.672Z,83.99
2024-01-04T02:03:49.295Z,83.42
2024-01-04T02:06:11.465Z,83.85
2024-01-04T02:08:33.459Z,83.32
2024-01-04T02:10:55.454Z,83.65
2024-01-04T02:13:17.444Z,82.82
2024-01-04T02:15:39.460Z,82.90
2024-01-04T02:18:01.890Z,82.39
2024-01-04T02:20:24.158Z,82.07
2024-01-04T02:22:46.439Z,82.43
2024-01-04T02:25:08.911Z,81.56
2024-01-04T02:27:30.758Z,81.83
2024-01-04T02:29:52.842Z,82.27
2024-01-04T02:32:14.861Z,82.44
2024-01-04T02:34:36.822Z,82.49
2024-01-04T02:36:58.752Z,82.49
2024-01-04T02:39:20.780Z,81.62
2024-01-04T02:41:42.752Z,82.58
2024-01-04T02:44:04.620Z,81.62
2024-01-04T02:46:26.517Z,81.60
2024-01-04T02:48:48.493Z,81.58
2024-01-04T02:51:10.558Z,82.03
2024-01-04T02:53:32.513Z,81.48
2024-01-04T02:55:56.356Z,81.33
2024-01-04T02:58:19.231Z,82.31
2024-01-04T03:00:41.190Z,82.61
2024-01-04T03:03:03.397Z,82.96
2024-01-04T03:05:25.373Z,84.39
2024-01-04T03:07:47.297Z,84.26
2024-01-04T03:10:09.536Z,84.42
2024-01-04T03:12:31.465Z,84.85
2024-01-04T03:14:54.200Z,85.56
2024-01-04T03:17:16.110Z,84.64
2024-01-04T03:19:38.044Z,85.31
2024-01-04T03:22:00.020Z,85.29
2024-01-04T03:24:21.885Z,85.93
2024-01-04T03:26:43.884Z,85.02
2024-01-04T03:29:05.769Z,85.94
2024-01-04T03:31:27.707Z,85.28
2024-01-04T03:33:50.652Z,86.05
2024-01-04T03:36:15.536Z,85.76
2024-01-04T03:38:37.655Z,85.41
2024-01-04T03:41:03.496Z,85.62
2024-01-04T03:43:25.450Z,85.71
2024-01-04T03:45:47.405Z,85.96
2024-01-04T03:48:09.532Z,85.80
2024-01-04T03:50:31.562Z,85.33
2024-01-04T03:52:54.902Z,85.94
2024-01-04T03:55:17.164Z,85.52
2024-01-04T03:57:39.306Z,85.51
2024-01-04T04:00:02.940Z,85.47
2024-01-04T04:02:24.923Z,85.13
2024-01-04T04:04:46.863Z,84.95
2024-01-04T04:07:08.861Z,86.27
2024-01-04T04:09:30.811Z,85.40
2024-01-04T04:11:52.815Z,85.81
2024-01-04T04:14:14.760Z,85.29
2024-01-04T04:16:41.781Z,84.84
2024-01-04T04:19:04.687Z,84.01
2024-01-04T04:21:26.735Z,83.81
2024-01-04T04:23:51.302Z,84.48
2024-01-04T04:26:13.390Z,84.94
2024-01-04T04:28:35.218Z,85.12
2024-01-04T04:30:57.231Z,85.40
2024-01-04T04:33:19.282Z,85.59
2024-01-04T04:35:51.090Z,85.00
2024-01-04T04:38:17.583Z,85.86
2024-01-04T04:40:39.504Z,86.28
2024-01-04T04:43:01.329Z,85.92
2024-01-04T04:45:23.341Z,85.55
2024-01-04T04:47:45.564Z,85.85
2024-01-04T04:50:08.219Z,86.00
2024-01-04T04:52:30.978Z,85.61
2024-01-04T04:54:52.872Z,86.25
2024-01-04T04:57:14.873Z,85.79
2024-01-04T04:59:36.785Z,85.56
2024-01-04T05:01:58.672Z,84.88
2024-01-04T05:04:20.754Z,85.00
2024-01-04T05:06:42.894Z,86.13
2024-01-04T05:09:04.886Z,85.91
2024-01-04T05:11:26.763Z,85.40
2024-01-04T05:13:48.653Z,85.48
2024-01-04T05:16:11.163Z,85.99
2024-01-04T05:18:33.178Z,85.89
2024-01-04T05:20:55.154Z,86.11
2024-01-04T05:23:18.891Z,86.45
2024-01-04T05:25:42.014Z,85.76
2024-01-04T05:28:04.404Z,85.93
2024-01-04T05:30:26.480Z,84.97
2024-01-04T05:32:48.681Z,85.17
2024-01-04T05:35:13.003Z,84.28
2024-01-04T05:37:35.005Z,85.45
2024-01-04T05:39:59.624Z,84.63
2024-01-04T05:42:22.887Z,83.63
2024-01-04T05:44:44.912Z,84.12
2024-01-04T05:47:08.260Z,83.71
2024-01-04T05:49:30.213Z,83.79
2024-01-04T05:51:52.194Z,84.25
2024-01-04T05:54:14.152Z,83.68
2024-01-04T05:56:36.114Z,84.19
2024-01-04T05:58:58.092Z,84.41
2024-01-04T06:01:20.069Z,83.27
2024-01-04T06:03:42.126Z,83.78
2024-01-04T06:06:04.625Z,84.59
2024-01-04T06:08:26.593Z,84.28
2024-01-04T06:10:48.641Z,85.03
2024-01-04T06:13:10.710Z,84.38
2024-01-04T06:15:32.699Z,84.82
2024-01-04T06:17:54.828Z,84.84
2024-01-04T06:20:17.207Z,85.11
2024-01-04T06:22:40.609Z,84.36
2024-01-04T06:25:02.563Z,85.56
2024-01-04T06:27:24.623Z,85.03
2024-01-04T06:29:46.768Z,85.42
2024-01-04T06:32:09.354Z,84.96
2024-01-04T06:34:31.510Z,84.77
2024-01-04T06:36:53.491Z,85.55
2024-01-04T06:39:15.856Z,85.17
2024-01-04T06:41:39.488Z,85.61
2024-01-04T06:44:01.636Z,84.67
2024-01-04T06:46:23.614Z,85.26
2024-01-04T06:48:45.741Z,85.04
2024-01-04T06:51:07.961Z,85.21
2024-01-04T06:53:29.875Z,85.13
2024-01-04T06:55:51.771Z,84.60
2024-01-04T06:58:13.693Z,84.60
2024-01-04T07:00:35.763Z,85.02
2024-01-04T07:02:57.748Z,85.83
2024-01-04T07:05:19.671Z,84.62
2024-01-04T07:07:41.690Z,84.39
2024-01-04T07:10:04.457Z,84.91
2024-01-04T07:12:27.127Z,83.58
2024-01-04T07:14:49.066Z,83.19
2024-01-04T07:17:11.003Z,83.76
2024-01-04T07:19:32.999Z,83.51
2024-01-04T07:21:55.080Z,82.86
2024-01-04T07:24:17.464Z,83.66
2024-01-04T07:26:39.552Z,83.57
2024-01-04T07:29:01.935Z,83.09
2024-01-04T07:31:23.975Z,83.51
2024-01-04T07:33:46.096Z,83.96
2024-01-04T07:36:11.155Z,83.94
2024-01-04T07:38:35.588Z,84.82
2024-01-04T07:40:57.551Z,86.73
2024-01-04T07:43:19.940Z,86.66
2024-01-04T07:45:41.939Z,86.43
2024-01-04T07:48:04.487Z,86.70
2024-01-04T07:50:26.567Z,88.41
2024-01-04T07:52:48.551Z,88.46
2024-01-04T07:55:10.494Z,90.21
2024-01-04T07:57:32.512Z,89.44
2024-01-04T07:59:54.493Z,89.08
2024-01-04T08:02:17.418Z,90.22
2024-01-04T08:04:39.356Z,88.96
2024-01-04T08:07:01.408Z,89.71
2024-01-04T08:09:23.519Z,90.15
2024-01-04T08:11:45.643Z,90.06
2024-01-04T08:14:08.385Z,89.80
2024-01-04T08:16:30.819Z,89.35
2024-01-04T08:18:52.912Z,88.93
2024-01-04T08:21:15.146Z,88.58
2024-01-04T08:23:38.153Z,89.58
2024-01-04T08:26:00.268Z,90.03
2024-01-04T08:28:22.160Z,89.82
2024-01-04T08:30:44.241Z,89.08
2024-01-04T08:33:06.420Z,88.73
2024-01-04T08:35:28.610Z,89.05
2024-01-04T08:37:51.083Z,87.99
2024-01-04T08:40:14.429Z,86.42
2024-01-04T08:42:39.282Z,86.55
2024-01-04T08:45:01.356Z,86.19
2024-01-04T08:47:24.632Z,86.20
2024-01-04T08:49:46.691Z,86.10
2024-01-04T08:52:11.596Z,85.22
2024-01-04T08:54:33.438Z,85.17
2024-01-04T08:56:55.530Z,84.27
2024-01-04T08:59:17.664Z,84.97
2024-01-04T09:01:39.577Z,84.22
2024-01-04T09:04:03.007Z,85.12
2024-01-04T09:06:25.074Z,84.44
2024-01-04T09:08:47.032Z,84.05
2024-01-04T09:11:09.060Z,83.25
2024-01-04T09:13:31.272Z,82.37
2024-01-04T09:15:53.230Z,82.65
2024-01-04T09:18:15.258Z,82.87
2024-01-04T09:20:37.323Z,82.35
2024-01-04T09:22:59.386Z,81.40
2024-01-04T09:25:21.310Z,82.19
2024-01-04T09:27:43.245Z,80.70
2024-01-04T09:30:05.918Z,79.74
2024-01-04T09:32:27.850Z,78.38
2024-01-04T09:34:51.210Z,79.36
2024-01-04T09:37:13.386Z,77.88
2024-01-04T09:39:35.382Z,77.65
2024-01-04T09:41:58.252Z,77.04
2024-01-04T09:44:20.453Z,75.27
2024-01-04T09:46:43.641Z,74.64
2024-01-04T09:49:08.241Z,73.76
2024-01-04T09:51:40.489Z,73.27
2024-01-04T09:54:03.304Z,72.73
2024-01-04T09:56:27.704Z,72.17
2024-01-04T09:58:50.689Z,72.84
2024-01-04T10:01:15.569Z,72.42
2024-01-04T10:03:44.307Z,72.60
2024-01-04T10:06:10.367Z,73.15
2024-01-04T10:08:38.698Z,73.13
2024-01-04T10:11:12.097Z,73.27
2024-01-04T10:13:35.082Z,73.16
2024-01-04T10:15:57.036Z,73.41
2024-01-04T10:18:20.510Z,74.60
2024-01-04T10:20:42.688Z,74.04
2024-01-04T10:23:05.369Z,74.14
2024-01-04T10:25:27.273Z,73.79
2024-01-04T10:27:59.667Z,73.25
2024-01-04T10:30:21.853Z,73.03
2024-01-04T10:32:51.324Z,73.37
2024-01-04T10:35:13.404Z,72.57
2024-01-04T10:37:35.698Z,71.43
2024-01-04T10:39:59.261Z,71.46
2024-01-04T10:42:21.177Z,71.64
2024-01-04T10:44:47.033Z,71.57
2024-01-04T10:47:14.424Z,72.23
2024-01-04T10:49:42.650Z,73.03
2024-01-04T10:52:10.261Z,72.88
2024-01-04T10:54:35.756Z,73.10
2024-01-04T10:57:00.933Z,73.70
2024-01-04T10:59:23.482Z,74.32
2024-01-04T11:01:46.298Z,74.02
2024-01-04T11:04:10.169Z,72.93
2024-01-04T11:06:40.928Z,73.06
2024-01-04T11:09:02.864Z,72.86
2024-01-04T11:11:28.603Z,72.58
2024-01-04T11:13:50.516Z,72.91
2024-01-04T11:16:46.940Z,72.24
2024-01-04T11:20:02.178Z,72.39
2024-01-04T11:22:32.964Z,71.68
2024-01-04T11:25:25.933Z,71.06
2024-01-04T11:27:48.522Z,71.04
2024-01-04T11:30:11.716Z,72.24
2024-01-04T11:32:36.125Z,71.55
2024-01-04T11:34:58.684Z,71.67
2024-01-04T11:37:24.366Z,72.24
2024-01-04T11:39:58.030Z,72.41
2024-01-04T11:42:20.973Z,71.82
2024-01-04T11:44:49.651Z,72.30
2024-01-04T11:47:15.592Z,72.16
2024-01-04T11:49:53.881Z,72.63
2024-01-04T11:52:21.414Z,72.79
2024-01-04T11:54:43.410Z,72.02
2024-01-04T11:57:23.104Z,72.27
2024-01-04T11:59:45.213Z,72.68
2024-01-04T12:02:08.532Z,73.28
2024-01-04T12:04:33.034Z,74.74
2024-01-04T12:06:57.744Z,75.00
2024-01-04T12:09:20.530Z,74.35
2024-01-04T12:11:44.468Z,75.24
2024-01-04T12:14:08.128Z,75.37
2024-01-04T12:16:31.181Z,74.43
2024-01-04T12:18:53.347Z,74.96
2024-01-04T12:21:18.685Z,76.54
2024-01-04T12:23:41.514Z,77.08
2024-01-04T12:26:04.450Z,75.82
2024-01-04T12:28:28.534Z,76.81
2024-01-04T12:30:50.561Z,77.15
2024-01-04T12:33:12.653Z,76.83
2024-01-04T12:35:34.574Z,76.98
2024-01-04T12:38:05.420Z,77.48
2024-01-04T12:40:28.662Z,76.90
2024-01-04T12:42:50.614Z,76.69
2024-01-04T12:45:12.585Z,77.45
2024-01-04T12:47:35.322Z,77.08
2024-01-04T12:49:58.419Z,78.68
2024-01-04T12:52:20.493Z,78.94
2024-01-04T12:54:42.417Z,77.75
2024-01-04T12:57:04.663Z,77.94
2024-01-04T12:59:26.777Z,77.07
2024-01-04T13:01:48.968Z,76.29
2024-01-04T13:04:12.367Z,76.30
2024-01-04T13:06:34.608Z,75.89
2024-01-04T13:08:58.015Z,76.55
2024-01-04T13:11:20.456Z,77.87
2024-01-04T13:13:43.813Z,77.46
2024-01-04T13:16:07.115Z,78.14
2024-01-04T13:18:29.195Z,78.28
2024-01-04T13:20:51.530Z,79.46
2024-01-04T13:23:13.782Z,77.76
2024-01-04T13:25:35.942Z,78.73
2024-01-04T13:27:57.905Z,77.24
2024-01-04T13:30:21.465Z,75.94
2024-01-04T13:32:44.502Z,75.85
2024-01-04T13:35:06.794Z,74.37
2024-01-04T13:37:28.693Z,73.78
2024-01-04T13:39:50.551Z,72.99
2024-01-04T13:42:12.531Z,73.23
2024-01-04T13:44:35.443Z,73.16
2024-01-04T13:46:57.376Z,73.17
2024-01-04T13:49:19.949Z,73.27
2024-01-04T13:51:44.862Z,72.39
2024-01-04T13:54:09.922Z,73.02
2024-01-04T13:56:32.648Z,72.86
2024-01-04T13:58:54.576Z,73.52
2024-01-04T14:01:16.740Z,74.38
2024-01-04T14:03:39.277Z,73.37
2024-01-04T14:06:02.391Z,73.51
2024-01-04T14:08:26.216Z,73.14
2024-01-04T14:10:49.660Z,74.37
2024-01-04T14:13:11.761Z,74.13
2024-01-04T14:15:33.792Z,74.31
2024-01-04T14:17:56.045Z,74.01
2024-01-04T14:20:20.020Z,73.06
2024-01-04T14:22:48.691Z,73.04
2024-01-04T14:25:10.822Z,73.15
2024-01-04T14:27:32.879Z,73.18
2024-01-04T14:29:54.941Z,73.31
2024-01-04T14:32:16.880Z,74.22
2024-01-04T14:34:38.886Z,73.96
2024-01-04T14:37:00.882Z,74.51
2024-01-04T14:39:23.107Z,74.20
2024-01-04T14:41:45.196Z,74.95
2024-01-04T14:44:07.406Z,74.50
2024-01-04T14:46:29.618Z,74.15
2024-01-04T14:48:51.898Z,74.68
2024-01-04T14:51:20.414Z,74.92
2024-01-04T14:53:42.596Z,75.56
2024-01-04T14:56:06.831Z,75.71
2024-01-04T14:58:28.721Z,75.78
2024-01-04T15:00:51.213Z,75.46
2024-01-04T15:03:13.232Z,75.85
2024-01-04T15:05:35.216Z,75.93
2024-01-04T15:07:57.599Z,75.48
2024-01-04T15:10:19.518Z,76.96
2024-01-04T15:12:41.396Z,76.93
2024-01-04T15:15:04.074Z,76.95
2024-01-04T15:17:26.506Z,78.03
2024-01-04T15:19:49.002Z,78.39
2024-01-04T15:22:11.017Z,77.88
2024-01-04T15:24:32.900Z,78.33
2024-01-04T15:26:54.790Z,79.04
2024-01-04T15:29:16.696Z,79.48
2024-01-04T15:31:38.673Z,79.17
2024-01-04T15:34:01.361Z,79.08
2024-01-04T15:36:23.641Z,79.43
2024-01-04T15:38:46.045Z,78.29
2024-01-04T15:41:08.095Z,78.82
2024-01-04T15:43:30.187Z,77.67
2024-01-04T15:45:52.052Z,77.25
2024-01-04T15:48:16.923Z,76.60
2024-01-04T15:50:40.044Z,76.52
2024-01-04T15:53:02.066Z,76.85
2024-01-04T15:55:23.933Z,77.07
2024-01-04T15:57:46.150Z,76.42
2024-01-04T16:00:09.083Z,76.24
2024-01-04T16:02:31.032Z,76.69
2024-01-04T16:04:52.898Z,77.12
2024-01-04T16:07:14.876Z,77.61
2024-01-04T16:09:36.881Z,77.31
2024-01-04T16:11:58.972Z,77.72
2024-01-04T16:14:20.965Z,78.10
2024-01-04T16:16:42.852Z,78.48
2024-01-04T16:19:04.862Z,79.39
2024-01-04T16:21:26.982Z,79.45
2024-01-04T16:23:49.137Z,80.00
2024-01-04T16:26:13.028Z,80.74
2024-01-04T16:28:38.626Z,81.26
2024-01-04T16:31:00.729Z,81.16
2024-01-04T16:33:22.814Z,82.25
2024-01-04T16:35:45.999Z,81.68
2024-01-04T16:38:08.699Z,82.81
2024-01-04T16:40:31.175Z,83.59
2024-01-04T16:42:53.185Z,83.79
2024-01-04T16:45:15.260Z,83.06
2024-01-04T16:47:37.581Z,83.66
2024-01-04T16:50:00.720Z,83.20
2024-01-04T16:52:22.765Z,83.90
2024-01-04T16:54:44.811Z,82.99
2024-01-04T16:57:07.374Z,83.32
2024-01-04T16:59:29.465Z,83.89
2024-01-04T17:01:51.408Z,83.05
2024-01-04T17:04:13.352Z,83.31
2024-01-04T17:06:35.369Z,83.41
2024-01-04T17:08:57.467Z,83.48
2024-01-04T17:11:19.579Z,83.73
2024-01-04T17:13:41.530Z,83.39
2024-01-04T17:16:04.053Z,83.70
2024-01-04T17:18:26.603Z,84.03
2024-01-04T17:20:49.819Z,83.94
2024-01-04T17:23:11.824Z,84.32
2024-01-04T17:25:33.752Z,83.91
2024-01-04T17:27:56.273Z,84.40
2024-01-04T17:30:21.052Z,84.95
2024-01-04T17:32:43.229Z,84.57
2024-01-04T17:35:05.645Z,84.00
2024-01-04T17:37:29.290Z,84.12
2024-01-04T17:39:51.344Z,84.08
2024-01-04T17:42:13.736Z,84.88
2024-01-04T17:44:35.655Z,84.85
2024-01-04T17:46:57.681Z,85.22
2024-01-04T17:49:19.621Z,85.41
2024-01-04T17:51:41.775Z,85.16
2024-01-04T17:54:04.228Z,85.51
2024-01-04T17:56:26.287Z,85.58
2024-01-04T17:58:48.801Z,86.00
2024-01-04T18:01:13.774Z,85.96
2024-01-04T18:03:37.012Z,86.10
2024-01-04T18:05:59.002Z,86.36
2024-01-04T18:08:21.534Z,86.39
2024-01-04T18:10:43.609Z,87.05
2024-01-04T18:13:05.560Z,86.95
2024-01-04T18:15:27.525Z,87.48
2024-01-04T18:17:49.693Z,87.57
2024-01-04T18:20:12.003Z,87.96
2024-01-04T18:22:36.838Z,87.90
2024-01-04T18:24:58.796Z,88.05
2024-01-04T18:27:20.813Z,88.83
2024-01-04T18:29:43.729Z,88.25
2024-01-04T18:32:06.235Z,88.74
2024-01-04T18:34:30.578Z,89.08
2024-01-04T18:36:52.622Z,88.87
2024-01-04T18:39:17.179Z,89.01
2024-01-04T18:41:40.195Z,89.42
2024-01-04T18:44:03.062Z,89.84
2024-01-04T18:46:24.959Z,89.82
2024-01-04T18:48:46.936Z,90.21
2024-01-04T18:51:09.584Z,90.68
2024-01-04T18:53:33.791Z,90.50
2024-01-04T18:55:55.662Z,90.95
2024-01-04T18:58:17.521Z,91.24
2024-01-04T19:00:39.866Z,91.29
2024-01-04T19:03:01.905Z,90.75
2024-01-04T19:05:23.886Z,90.47
2024-01-04T19:07:46.183Z,90.18
2024-01-04T19:10:08.858Z,90.18
2024-01-04T19:12:30.845Z,90.52
2024-01-04T19:14:52.798Z,90.99
2024-01-04T19:17:14.700Z,91.17
2024-01-04T19:19:36.654Z,91.17
2024-01-04T19:21:58.695Z,91.96
2024-01-04T19:24:20.721Z,91.79
2024-01-04T19:26:42.761Z,91.74
2024-01-04T19:29:04.720Z,91.95
2024-01-04T19:31:26.829Z,91.90
2024-01-04T19:33:48.993Z,91.54
2024-01-04T19:36:11.074Z,91.48
2024-01-04T19:38:33.070Z,91.76
2024-01-04T19:40:54.980Z,91.85
2024-01-04T19:43:16.841Z,92.67
2024-01-04T19:45:39.230Z,92.14
2024-01-04T19:48:01.280Z,92.78
2024-01-04T19:50:25.339Z,92.66
2024-01-04T19:52:49.368Z,92.33
2024-01-04T19:55:14.452Z,92.38
2024-01-04T19:57:36.357Z,92.25
2024-01-04T19:59:58.310Z,92.41
2024-01-04T20:02:20.410Z,92.71
2024-01-04T20:04:42.960Z,92.29
2024-01-04T20:07:13.167Z,92.87
2024-01-04T20:09:35.607Z,92.46
2024-01-04T20:11:57.664Z,92.73
2024-01-04T20:14:19.606Z,92.71
2024-01-04T20:16:43.030Z,92.75
2024-01-04T20:19:05.310Z,92.58
2024-01-04T20:21:27.546Z,92.06
2024-01-04T20:23:49.505Z,91.90
2024-01-04T20:26:12.466Z,92.06
2024-01-04T20:28:34.488Z,92.32
2024-01-04T20:30:57.360Z,91.91
2024-01-04T20:33:19.419Z,92.18
2024-01-04T20:35:41.441Z,91.53
2024-01-04T20:38:03.617Z,91.96
2024-01-04T20:40:25.537Z,91.73
2024-01-04T20:42:47.476Z,91.15
2024-01-04T20:45:09.534Z,91.73
2024-01-04T20:47:33.522Z,91.50
2024-01-04T20:49:55.501Z,90.83
2024-01-04T20:52:18.254Z,90.91
2024-01-04T20:54:40.717Z,90.50
2024-01-04T20:57:02.629Z,91.00
2024-01-04T20:59:24.560Z,91.01
2024-01-04T21:01:47.726Z,90.35
2024-01-04T21:04:11.093Z,90.48
2024-01-04T21:06:33.762Z,90.40
2024-01-04T21:08:55.822Z,90.47
2024-01-04T21:11:17.772Z,90.27
2024-01-04T21:13:39.676Z,90.24
2024-01-04T21:16:01.875Z,89.88
2024-01-04T21:18:23.938Z,90.25
2024-01-04T21:20:47.622Z,89.52
2024-01-04T21:23:12.766Z,89.89
2024-01-04T21:25:34.736Z,89.79
2024-01-04T21:27:56.644Z,90.12
2024-01-04T21:30:18.696Z,89.79
2024-01-04T21:32:40.655Z,89.89
2024-01-04T21:35:02.805Z,90.33
2024-01-04T21:37:24.673Z,90.25
2024-01-04T21:39:49.320Z,90.89
2024-01-04T21:42:13.573Z,90.74
2024-01-04T21:44:39.072Z,90.57
2024-01-04T21:47:00.930Z,90.50
2024-01-04T21:49:24.024Z,90.28
2024-01-04T21:51:46.837Z,90.99
2024-01-04T21:54:09.071Z,91.47
2024-01-04T21:56:31.372Z,91.77
2024-01-04T21:58:54.240Z,91.78
2024-01-04T22:01:27.300Z,91.71
2024-01-04T22:03:49.293Z,91.67
2024-01-04T22:06:11.373Z,91.63
2024-01-04T22:08:33.272Z,91.26
2024-01-04T22:10:55.261Z,91.93
2024-01-04T22:13:17.745Z,92.05
2024-01-04T22:15:41.178Z,91.85
2024-01-04T22:18:05.909Z,91.57
2024-01-04T22:20:27.956Z,91.20
2024-01-04T22:22:51.209Z,91.88
2024-01-04T22:25:13.107Z,91.91
2024-01-04T22:27:34.981Z,91.33
2024-01-04T22:29:57.043Z,90.70
2024-01-04T22:32:18.994Z,90.63
2024-01-04T22:34:41.006Z,91.04
2024-01-04T22:37:03.651Z,91.01
2024-01-04T22:39:25.612Z,91.01
2024-01-04T22:41:50.239Z,91.40
2024-01-04T22:44:13.105Z,91.17
2024-01-04T22:46:35.067Z,91.24
2024-01-04T22:48:57.074Z,90.98
2024-01-04T22:51:19.487Z,91.35
2024-01-04T22:53:41.415Z,91.54
2024-01-04T22:56:03.467Z,91.22
2024-01-04T22:58:25.351Z,91.07
2024-01-04T23:00:47.364Z,90.59
2024-01-04T23:03:09.401Z,90.79
2024-01-04T23:05:31.360Z,90.51
2024-01-04T23:07:53.664Z,90.88
2024-01-04T23:10:15.552Z,90.38
2024-01-04T23:12:37.725Z,90.01
2024-01-04T23:15:00.528Z,90.45
2024-01-04T23:17:22.557Z,90.35
2024-01-04T23:19:45.495Z,90.03
2024-01-04T23:22:08.655Z,89.79
2024-01-04T23:24:30.601Z,89.62
2024-01-04T23:26:52.592Z,89.53
2024-01-04T23:29:14.486Z,89.51
2024-01-04T23:31:36.799Z,89.27
2024-01-04T23:33:58.847Z,89.07
2024-01-04T23:36:20.962Z,89.32
2024-01-04T23:38:43.176Z,89.03
2024-01-04T23:41:05.237Z,88.92
2024-01-04T23:43:27.400Z,89.00
2024-01-04T23:45:49.328Z,88.45
2024-01-04T23:48:11.300Z,88.43
2024-01-04T23:50:33.340Z,88.14
2024-01-04T23:52:55.335Z,87.83
2024-01-04T23:55:17.214Z,87.47
2024-01-04T23:57:39.142Z,87.73
